createdAt,value
2022-11-16T00:02:22.783Z,13.75
2022-11-16T00:04:52.107Z,15.25
2022-11-16T00:07:21.561Z,15.27
2022-11-16T00:09:52.473Z,14.75
2022-11-16T00:12:21.764Z,13.05
2022-11-16T00:14:51.092Z,15.57
2022-11-16T00:17:20.416Z,12.30
2022-11-16T00:19:50.242Z,14.85
2022-11-16T00:22:19.635Z,15.00
2022-11-16T00:24:50.732Z,14.93
2022-11-16T00:27:20.196Z,15.27
2022-11-16T00:29:49.665Z,15.52
2022-11-16T00:32:19.007Z,15.32
2022-11-16T00:34:48.289Z,16.90
2022-11-16T00:37:17.690Z,17.40
2022-11-16T00:39:47.051Z,15.48
2022-11-16T00:42:17.910Z,17.80
2022-11-16T00:44:47.213Z,15.73
2022-11-16T00:47:16.674Z,16.23
2022-11-16T00:51:10.295Z,18.77
2022-11-16T00:53:39.986Z,19.17
2022-11-16T00:56:10.188Z,12.68
2022-11-16T00:58:39.571Z,16.55
2022-11-16T01:01:10.775Z,16.80
2022-11-16T01:03:40.866Z,15.18
2022-11-16T01:06:15.246Z,15.38
2022-11-16T01:08:46.163Z,12.25
2022-11-16T01:11:35.599Z,13.82
2022-11-16T01:14:07.853Z,13.85
2022-11-16T01:16:37.831Z,13.13
2022-11-16T01:19:09.017Z,14.13
2022-11-16T01:21:39.885Z,14.13
2022-11-16T01:24:09.589Z,12.32
2022-11-16T01:26:38.984Z,15.35
2022-11-16T01:29:08.313Z,16.00
2022-11-16T01:31:37.661Z,16.05
2022-11-16T01:34:07.030Z,13.20
2022-11-16T01:36:36.985Z,13.85
2022-11-16T01:39:08.911Z,13.23
2022-11-16T01:41:38.267Z,13.57
2022-11-16T01:44:46.710Z,16.27
2022-11-16T01:47:18.672Z,17.70
2022-11-16T01:49:53.618Z,17.83
2022-11-16T01:52:27.565Z,12.98
2022-11-16T01:54:58.553Z,17.48
2022-11-16T01:57:34.419Z,16.42
2022-11-16T02:00:08.482Z,15.63
2022-11-16T02:02:37.862Z,14.93
2022-11-16T02:05:09.272Z,14.57
2022-11-16T02:08:35.017Z,15.50
2022-11-16T02:11:41.427Z,13.80
2022-11-16T02:14:25.645Z,12.52
2022-11-16T02:17:07.464Z,12.57
2022-11-16T02:20:10.127Z,13.07
2022-11-16T02:23:02.209Z,12.20
2022-11-16T02:25:41.849Z,12.77
2022-11-16T02:28:34.681Z,13.02
2022-11-16T02:31:10.506Z,13.70
2022-11-16T02:33:44.417Z,14.63
2022-11-16T02:36:20.614Z,14.82
2022-11-16T02:38:58.133Z,16.65
2022-11-16T02:41:33.099Z,18.95
2022-11-16T02:44:11.178Z,17.83
2022-11-16T02:46:47.532Z,16.85
2022-11-16T02:49:20.609Z,17.35
2022-11-16T02:51:50.782Z,16.65
2022-11-16T02:54:22.674Z,17.50
2022-11-16T02:56:57.225Z,19.23
2022-11-16T02:59:32.235Z,19.17
2022-11-16T03:02:17.699Z,19.08
2022-11-16T03:04:51.587Z,20.05
2022-11-16T03:07:25.746Z,19.35
2022-11-16T03:09:57.102Z,19.02
2022-11-16T03:12:32.116Z,16.83
2022-11-16T03:15:06.283Z,16.75
2022-11-16T03:17:43.288Z,19.27
2022-11-16T03:20:20.842Z,17.90
2022-11-16T03:22:55.826Z,18.80
2022-11-16T03:25:33.537Z,17.92
2022-11-16T03:28:10.401Z,16.30
2022-11-16T03:30:44.308Z,17.75
2022-11-16T03:33:21.228Z,15.02
2022-11-16T03:35:58.473Z,16.65
2022-11-16T03:38:29.907Z,16.83
2022-11-16T03:41:03.225Z,16.80
2022-11-16T03:43:34.208Z,16.42
2022-11-16T03:46:03.688Z,17.05
2022-11-16T03:52:10.281Z,17.58
2022-11-16T03:54:39.588Z,16.98
2022-11-16T03:57:15.610Z,16.08
2022-11-16T03:59:45.397Z,15.13
2022-11-16T04:02:14.694Z,16.10
2022-11-16T04:05:01.184Z,15.10
2022-11-16T04:07:50.285Z,14.70
2022-11-16T04:10:37.492Z,15.68
2022-11-16T04:13:24.913Z,14.93
2022-11-16T04:16:11.829Z,14.77
2022-11-16T04:18:58.491Z,15.55
2022-11-16T04:21:48.211Z,15.82
2022-11-16T04:24:22.359Z,14.15
2022-11-16T04:27:13.443Z,13.73
2022-11-16T04:29:43.508Z,14.57
2022-11-16T04:32:31.007Z,15.13
2022-11-16T04:35:18.151Z,15.85
2022-11-16T04:37:50.289Z,14.82
2022-11-16T04:40:23.833Z,14.13
2022-11-16T04:42:54.419Z,15.48
2022-11-16T04:45:41.595Z,14.48
2022-11-16T04:48:11.278Z,14.73
2022-11-16T04:50:41.241Z,15.60
2022-11-16T04:53:11.306Z,14.43
2022-11-16T04:55:42.486Z,13.40
2022-11-16T04:58:11.890Z,15.00
2022-11-16T05:00:41.412Z,14.00
2022-11-16T05:03:10.754Z,12.93
2022-11-16T05:05:40.511Z,16.90
2022-11-16T05:08:09.903Z,14.60
2022-11-16T05:10:40.667Z,13.98
2022-11-16T05:13:10.004Z,14.90
2022-11-16T05:15:39.450Z,15.38
2022-11-16T05:18:09.006Z,16.05
2022-11-16T05:20:56.007Z,18.95
2022-11-16T05:23:42.568Z,17.67
2022-11-16T05:26:13.515Z,16.33
2022-11-16T05:28:45.724Z,17.83
2022-11-16T05:31:15.077Z,23.70
2022-11-16T05:33:44.655Z,28.17
2022-11-16T05:36:14.202Z,31.88
2022-11-16T05:38:43.722Z,22.20
2022-11-16T05:41:14.673Z,33.70
2022-11-16T05:43:44.011Z,36.38
2022-11-16T05:46:13.339Z,32.90
2022-11-16T05:48:42.749Z,39.47
2022-11-16T05:51:12.012Z,32.35
2022-11-16T05:53:41.320Z,45.17
2022-11-16T05:56:14.490Z,36.03
2022-11-16T05:58:44.813Z,43.03
2022-11-16T06:01:14.257Z,46.67
2022-11-16T06:03:43.888Z,40.13
2022-11-16T06:06:13.308Z,36.90
2022-11-16T06:08:42.727Z,42.97
2022-11-16T06:11:14.655Z,41.22
2022-11-16T06:13:44.001Z,44.63
2022-11-16T06:16:13.963Z,44.17
2022-11-16T06:18:45.715Z,44.25
2022-11-16T06:21:16.847Z,47.70
2022-11-16T06:23:46.905Z,46.60
2022-11-16T06:26:17.718Z,46.58
2022-11-16T06:28:47.327Z,45.63
2022-11-16T06:31:16.714Z,45.60
2022-11-16T06:33:46.107Z,43.15
2022-11-16T06:36:15.409Z,37.72
2022-11-16T06:38:44.896Z,30.83
2022-11-16T06:41:14.219Z,28.90
2022-11-16T06:43:44.950Z,29.67
2022-11-16T06:46:14.369Z,31.98
2022-11-16T06:52:10.120Z,31.17
2022-11-16T06:54:39.457Z,30.13
2022-11-16T06:57:08.903Z,26.45
2022-11-16T06:59:38.522Z,25.10
2022-11-16T07:02:08.055Z,18.73
2022-11-16T07:04:37.464Z,16.88
2022-11-16T07:07:08.426Z,15.77
2022-11-16T07:09:37.867Z,14.93
2022-11-16T07:12:07.958Z,12.70
2022-11-16T07:14:37.236Z,12.25
2022-11-16T07:17:09.615Z,12.25
2022-11-16T07:19:40.263Z,10.68
2022-11-16T07:22:11.080Z,11.20
2022-11-16T07:24:40.616Z,8.02
2022-11-16T07:27:10.239Z,6.20
2022-11-16T07:29:39.555Z,5.50
2022-11-16T07:32:08.879Z,5.00
2022-11-16T07:34:38.239Z,4.20
2022-11-16T07:37:07.557Z,3.80
2022-11-16T07:39:38.463Z,4.10
2022-11-16T07:42:11.982Z,3.58
2022-11-16T07:44:41.630Z,8.05
2022-11-16T07:47:11.009Z,12.38
2022-11-16T07:49:40.429Z,9.73
2022-11-16T07:52:11.795Z,7.30
2022-11-16T07:54:42.641Z,4.82
2022-11-16T07:57:12.022Z,4.97
2022-11-16T07:59:41.387Z,5.22
2022-11-16T08:02:12.069Z,4.82
2022-11-16T08:04:41.480Z,4.40
2022-11-16T08:07:11.715Z,5.13
2022-11-16T08:09:42.765Z,4.10
2022-11-16T08:12:12.168Z,4.53
2022-11-16T08:14:42.156Z,5.88
2022-11-16T08:17:11.432Z,4.28
2022-11-16T08:19:42.487Z,4.05
2022-11-16T08:22:11.853Z,3.53
2022-11-16T08:24:42.826Z,5.45
2022-11-16T08:27:13.331Z,7.70
2022-11-16T08:29:42.605Z,7.22
2022-11-16T08:32:12.005Z,10.15
2022-11-16T08:34:41.442Z,11.38
2022-11-16T08:37:10.829Z,10.40
2022-11-16T08:39:41.753Z,8.93
2022-11-16T08:42:11.284Z,10.32
2022-11-16T08:44:40.919Z,10.50
2022-11-16T08:47:10.426Z,11.30
2022-11-16T08:49:41.989Z,11.18
2022-11-16T08:52:14.633Z,11.57
2022-11-16T08:54:45.431Z,12.45
2022-11-16T08:57:14.873Z,10.45
2022-11-16T08:59:44.679Z,10.63
2022-11-16T09:02:14.296Z,11.60
2022-11-16T09:04:44.788Z,10.70
2022-11-16T09:07:14.259Z,12.18
2022-11-16T09:09:45.125Z,10.93
2022-11-16T09:12:14.582Z,10.88
2022-11-16T09:14:45.145Z,13.68
2022-11-16T09:17:18.789Z,12.15
2022-11-16T09:19:51.176Z,12.18
2022-11-16T09:22:20.624Z,13.52
2022-11-16T09:24:51.578Z,13.45
2022-11-16T09:27:21.129Z,12.63
2022-11-16T09:29:50.505Z,13.00
2022-11-16T09:32:19.923Z,13.13
2022-11-16T09:34:49.377Z,12.75
2022-11-16T09:37:18.831Z,13.65
2022-11-16T09:39:49.650Z,13.35
2022-11-16T09:42:34.514Z,12.00
2022-11-16T09:45:08.748Z,13.85
2022-11-16T09:47:50.425Z,12.60
2022-11-16T09:52:24.103Z,13.35
2022-11-16T09:54:55.555Z,12.80
2022-11-16T09:57:34.169Z,12.52
2022-11-16T10:00:13.167Z,11.93
2022-11-16T10:02:49.925Z,12.18
2022-11-16T10:05:25.940Z,11.40
2022-11-16T10:08:06.438Z,10.55
2022-11-16T10:10:41.369Z,10.63
2022-11-16T10:13:27.432Z,10.63
2022-11-16T10:16:08.194Z,10.23
2022-11-16T10:18:54.288Z,10.25
2022-11-16T10:21:41.146Z,9.35
2022-11-16T10:24:34.959Z,8.75
2022-11-16T10:27:27.838Z,8.32
2022-11-16T10:32:36.946Z,9.70
2022-11-16T10:35:17.378Z,10.25
2022-11-16T10:37:50.389Z,10.05
2022-11-16T10:40:25.947Z,10.18
2022-11-16T10:43:04.528Z,10.23
2022-11-16T10:45:44.809Z,9.70
2022-11-16T10:48:28.264Z,8.75
2022-11-16T10:50:58.016Z,10.30
2022-11-16T10:53:34.637Z,9.82
2022-11-16T10:56:18.973Z,10.52
2022-11-16T10:59:02.591Z,9.98
2022-11-16T11:01:38.627Z,9.98
2022-11-16T11:04:24.022Z,11.13
2022-11-16T11:06:55.746Z,11.32
2022-11-16T11:09:32.342Z,12.53
2022-11-16T11:12:31.267Z,11.05
2022-11-16T11:15:04.820Z,8.13
2022-11-16T11:17:36.215Z,9.48
2022-11-16T11:20:08.132Z,5.70
2022-11-16T11:22:48.013Z,7.00
2022-11-16T11:25:24.016Z,7.35
2022-11-16T11:28:07.152Z,7.72
2022-11-16T11:30:37.742Z,9.27
2022-11-16T11:33:13.796Z,8.93
2022-11-16T11:35:43.419Z,9.10
2022-11-16T11:38:17.492Z,9.82
2022-11-16T11:41:00.186Z,8.82
2022-11-16T11:43:33.695Z,10.27
2022-11-16T11:46:13.498Z,11.15
2022-11-16T11:48:53.362Z,8.30
2022-11-16T11:51:31.320Z,6.10
2022-11-16T11:54:02.594Z,9.55
2022-11-16T11:56:34.730Z,8.52
2022-11-16T11:59:07.160Z,8.57
2022-11-16T12:02:09.901Z,6.95
2022-11-16T12:05:14.272Z,5.70
2022-11-16T12:08:04.526Z,6.93
2022-11-16T12:10:46.310Z,6.72
2022-11-16T12:13:41.217Z,5.18
2022-11-16T12:16:23.413Z,6.20
2022-11-16T12:19:14.442Z,6.28
2022-11-16T12:21:56.387Z,6.55
2022-11-16T12:24:49.389Z,6.63
2022-11-16T12:30:08.619Z,7.28
2022-11-16T12:33:01.446Z,8.60
2022-11-16T12:35:48.692Z,8.00
2022-11-16T12:38:53.517Z,7.70
2022-11-16T12:41:57.205Z,8.02
2022-11-16T12:44:49.930Z,7.68
2022-11-16T12:47:30.828Z,6.53
2022-11-16T12:52:32.912Z,6.25
2022-11-16T12:55:26.736Z,6.20
2022-11-16T12:58:20.656Z,5.38
2022-11-16T13:01:06.688Z,5.60
2022-11-16T13:03:44.259Z,6.55
2022-11-16T13:06:20.708Z,7.20
2022-11-16T13:09:00.166Z,7.10
2022-11-16T13:11:36.799Z,7.97
2022-11-16T13:14:12.438Z,6.45
2022-11-16T13:16:42.760Z,5.25
2022-11-16T13:19:16.768Z,4.45
2022-11-16T13:21:55.658Z,5.40
2022-11-16T13:24:51.049Z,4.70
2022-11-16T13:27:36.244Z,5.03
2022-11-16T13:30:18.096Z,5.07
2022-11-16T13:33:16.479Z,4.63
2022-11-16T13:35:46.116Z,5.35
2022-11-16T13:38:15.999Z,4.97
2022-11-16T13:40:46.822Z,4.40
2022-11-16T13:43:22.824Z,4.55
2022-11-16T13:46:03.375Z,4.65
2022-11-16T13:48:38.438Z,4.30
2022-11-16T13:51:17.709Z,4.53
2022-11-16T13:54:43.136Z,5.32
2022-11-16T13:56:53.816Z,10.15
2022-11-16T13:59:29.250Z,9.88
2022-11-16T14:02:01.950Z,11.13
2022-11-16T14:07:43.338Z,8.63
2022-11-16T14:10:14.945Z,11.65
2022-11-16T14:12:56.184Z,11.10
2022-11-16T14:15:34.697Z,11.27
2022-11-16T14:18:35.304Z,11.50
2022-11-16T14:21:16.881Z,11.63
2022-11-16T14:24:18.952Z,10.73
2022-11-16T14:27:02.660Z,13.95
2022-11-16T14:29:49.578Z,17.40
2022-11-16T14:32:25.016Z,15.95
2022-11-16T14:34:58.235Z,13.10
2022-11-16T14:37:36.418Z,12.52
2022-11-16T14:40:15.307Z,14.00
2022-11-16T14:43:15.468Z,12.48
2022-11-16T14:45:53.768Z,12.02
2022-11-16T14:48:27.183Z,12.52
2022-11-16T14:51:09.188Z,12.25
2022-11-16T14:53:42.629Z,13.77
2022-11-16T14:56:15.339Z,11.63
2022-11-16T15:01:29.716Z,12.38
2022-11-16T15:04:04.114Z,13.15
2022-11-16T15:06:42.694Z,12.02
2022-11-16T15:09:21.590Z,12.50
2022-11-16T15:12:10.048Z,14.20
2022-11-16T15:14:46.188Z,17.15
2022-11-16T15:17:20.771Z,12.57
2022-11-16T15:19:57.675Z,12.90
2022-11-16T15:22:29.487Z,13.02
2022-11-16T15:25:00.964Z,17.57
2022-11-16T15:27:40.352Z,18.55
2022-11-16T15:30:28.941Z,17.40
2022-11-16T15:33:00.154Z,15.65
2022-11-16T15:35:33.476Z,15.27
2022-11-16T15:38:05.477Z,16.75
2022-11-16T15:40:36.420Z,17.10
2022-11-16T15:43:08.322Z,22.13
2022-11-16T15:45:39.941Z,13.60
2022-11-16T15:48:17.547Z,16.17
2022-11-16T15:52:10.879Z,14.25
2022-11-16T15:54:54.087Z,15.38
2022-11-16T15:57:25.609Z,16.63
2022-11-16T15:59:57.636Z,20.20
2022-11-16T16:02:31.061Z,13.88
2022-11-16T16:05:00.383Z,12.32
2022-11-16T16:07:42.634Z,11.77
2022-11-16T16:10:25.918Z,13.07
2022-11-16T16:12:57.481Z,14.98
2022-11-16T16:15:30.234Z,14.73
2022-11-16T16:20:32.876Z,16.40
2022-11-16T16:23:12.808Z,17.23
2022-11-16T16:25:47.448Z,15.27
2022-11-16T16:28:20.613Z,14.27
2022-11-16T16:30:53.429Z,14.57
2022-11-16T16:33:25.843Z,11.63
2022-11-16T16:35:55.338Z,10.68
2022-11-16T16:38:26.053Z,11.65
2022-11-16T16:40:56.643Z,9.98
2022-11-16T16:43:26.026Z,10.20
2022-11-16T16:45:55.509Z,10.23
2022-11-16T16:48:25.021Z,10.38
2022-11-16T16:50:54.393Z,11.88
2022-11-16T16:53:25.179Z,10.50
2022-11-16T16:55:54.877Z,11.05
2022-11-16T16:58:24.144Z,11.10
2022-11-16T17:00:58.276Z,10.50
2022-11-16T17:03:31.163Z,11.07
2022-11-16T17:06:03.062Z,16.33
2022-11-16T17:08:37.769Z,14.83
2022-11-16T17:11:07.717Z,13.07
2022-11-16T17:13:37.118Z,10.55
2022-11-16T17:16:07.931Z,17.38
2022-11-16T17:18:37.287Z,16.50
2022-11-16T17:21:08.883Z,13.43
2022-11-16T17:23:39.638Z,13.13
2022-11-16T17:26:10.613Z,12.68
2022-11-16T17:28:40.018Z,12.38
2022-11-16T17:31:12.290Z,13.05
2022-11-16T17:33:43.257Z,13.80
2022-11-16T17:36:18.016Z,13.75
2022-11-16T17:38:48.914Z,15.88
2022-11-16T17:41:21.798Z,21.77
2022-11-16T17:43:54.661Z,23.27
2022-11-16T17:48:56.230Z,25.42
2022-11-16T17:51:27.281Z,27.77
2022-11-16T17:53:58.343Z,25.95
2022-11-16T17:56:29.594Z,25.83
2022-11-16T17:58:59.759Z,22.20
2022-11-16T18:01:29.460Z,17.33
2022-11-16T18:03:58.903Z,13.90
2022-11-16T18:06:28.695Z,12.38
2022-11-16T18:08:59.864Z,12.48
2022-11-16T18:11:30.636Z,13.13
2022-11-16T18:14:01.931Z,15.80
2022-11-16T18:16:33.670Z,17.98
2022-11-16T18:19:05.771Z,15.75
2022-11-16T18:21:40.513Z,16.60
2022-11-16T18:24:12.279Z,19.05
2022-11-16T18:26:42.056Z,17.90
2022-11-16T18:29:16.210Z,15.18
2022-11-16T18:31:45.788Z,13.45
2022-11-16T18:34:19.591Z,20.58
2022-11-16T18:36:50.984Z,15.55
2022-11-16T18:39:21.891Z,12.40
2022-11-16T18:41:55.021Z,12.02
2022-11-16T18:44:25.135Z,14.38
2022-11-16T18:46:54.455Z,14.13
2022-11-16T18:52:09.995Z,12.18
2022-11-16T18:54:39.467Z,12.13
2022-11-16T18:57:08.761Z,9.43
2022-11-16T18:59:38.287Z,9.98
2022-11-16T19:02:07.943Z,10.85
2022-11-16T19:04:40.208Z,10.27
2022-11-16T19:07:11.068Z,7.28
2022-11-16T19:09:40.552Z,6.60
2022-11-16T19:12:10.039Z,8.38
2022-11-16T19:14:40.056Z,7.00
2022-11-16T19:17:10.393Z,7.18
2022-11-16T19:19:39.692Z,7.47
2022-11-16T19:22:10.480Z,5.90
2022-11-16T19:24:39.846Z,7.65
2022-11-16T19:27:09.125Z,7.63
2022-11-16T19:29:38.516Z,8.23
2022-11-16T19:32:08.094Z,8.52
2022-11-16T19:34:37.416Z,7.57
2022-11-16T19:37:06.760Z,8.15
2022-11-16T19:39:37.544Z,7.88
2022-11-16T19:42:07.395Z,10.57
2022-11-16T19:44:36.874Z,8.43
2022-11-16T19:47:06.756Z,9.55
2022-11-16T19:49:36.150Z,16.48
2022-11-16T19:52:06.097Z,12.90
2022-11-16T19:54:36.810Z,6.88
2022-11-16T19:57:06.307Z,8.48
2022-11-16T19:59:35.688Z,9.82
2022-11-16T20:02:05.287Z,12.05
2022-11-16T20:04:34.680Z,10.25
2022-11-16T20:07:05.754Z,10.60
2022-11-16T20:09:38.287Z,9.68
2022-11-16T20:12:08.094Z,11.07
2022-11-16T20:14:37.545Z,10.35
2022-11-16T20:17:06.902Z,14.27
2022-11-16T20:19:36.200Z,15.07
2022-11-16T20:22:06.675Z,15.52
2022-11-16T20:24:37.546Z,13.23
2022-11-16T20:27:07.781Z,9.75
2022-11-16T20:29:37.199Z,9.80
2022-11-16T20:32:06.891Z,10.00
2022-11-16T20:34:36.987Z,11.05
2022-11-16T20:37:07.666Z,10.15
2022-11-16T20:39:38.541Z,9.35
2022-11-16T20:42:07.845Z,7.38
2022-11-16T20:44:38.416Z,6.70
2022-11-16T20:47:07.854Z,6.40
2022-11-16T20:49:37.168Z,7.65
2022-11-16T20:52:06.954Z,10.07
2022-11-16T20:54:37.800Z,10.75
2022-11-16T20:57:07.460Z,9.70
2022-11-16T20:59:36.829Z,11.30
2022-11-16T21:02:06.148Z,13.38
2022-11-16T21:04:35.411Z,12.40
2022-11-16T21:07:04.729Z,14.65
2022-11-16T21:09:54.274Z,11.93
2022-11-16T21:12:44.578Z,11.45
2022-11-16T21:15:13.934Z,11.38
2022-11-16T21:17:43.267Z,9.73
2022-11-16T21:20:26.791Z,10.23
2022-11-16T21:22:56.626Z,10.70
2022-11-16T21:25:25.975Z,10.15
2022-11-16T21:27:57.327Z,10.07
2022-11-16T21:30:26.585Z,10.77
2022-11-16T21:32:55.916Z,16.85
2022-11-16T21:35:27.262Z,5.13
2022-11-16T21:37:56.675Z,5.70
2022-11-16T21:40:26.107Z,4.00
2022-11-16T21:42:56.980Z,4.90
2022-11-16T21:45:26.339Z,6.07
2022-11-16T21:47:55.667Z,5.05
2022-11-16T21:52:09.703Z,6.22
2022-11-16T21:54:48.562Z,7.05
2022-11-16T21:57:18.585Z,8.48
2022-11-16T21:59:47.990Z,11.13
2022-11-16T22:02:17.197Z,13.07
2022-11-16T22:05:04.258Z,12.00
2022-11-16T22:07:36.983Z,11.40
2022-11-16T22:12:39.061Z,10.70
2022-11-16T22:15:10.046Z,11.43
2022-11-16T22:17:44.473Z,9.60
2022-11-16T22:20:14.694Z,10.85
2022-11-16T22:22:45.482Z,22.02
2022-11-16T22:25:16.021Z,23.58
2022-11-16T22:28:13.790Z,20.02
2022-11-16T22:30:38.932Z,20.27
2022-11-16T22:33:08.374Z,15.68
2022-11-16T22:35:39.521Z,12.48
2022-11-16T22:38:10.303Z,18.20
2022-11-16T22:40:39.553Z,18.45
2022-11-16T22:43:08.866Z,18.90
2022-11-16T22:45:38.231Z,16.63
2022-11-16T22:48:08.146Z,17.40
2022-11-16T22:50:37.587Z,19.75
2022-11-16T22:53:08.490Z,16.88
2022-11-16T22:55:38.712Z,17.80
2022-11-16T22:58:08.816Z,14.00
2022-11-16T23:00:42.002Z,13.80
2022-11-16T23:03:11.889Z,11.50
2022-11-16T23:05:41.215Z,11.07
2022-11-16T23:08:11.948Z,9.30
2022-11-16T23:10:55.003Z,8.95
2022-11-16T23:13:41.652Z,9.35
2022-11-16T23:16:11.423Z,6.32
2022-11-16T23:18:40.623Z,9.45
2022-11-16T23:21:28.302Z,4.35
2022-11-16T23:24:16.472Z,3.83
2022-11-16T23:27:03.507Z,3.97
2022-11-16T23:29:33.008Z,7.22
2022-11-16T23:32:02.300Z,7.53
2022-11-16T23:34:31.642Z,7.15
2022-11-16T23:37:05.085Z,6.88
2022-11-16T23:39:36.272Z,4.85
2022-11-16T23:42:23.450Z,4.35
2022-11-16T23:44:53.436Z,4.72
2022-11-16T23:47:22.998Z,3.97
2022-11-16T23:49:52.460Z,4.65
2022-11-16T23:52:21.799Z,9.50
2022-11-16T23:54:52.668Z,11.55
2022-11-16T23:57:21.976Z,6.32
2022-11-16T23:59:51.410Z,4.68
